createdAt,value
2018-05-17T03:44:57.730Z,12.21
2018-05-17T03:47:51.527Z,12.10
2018-05-17T03:52:33.182Z,12.17
2018-05-17T03:53:33.936Z,12.18
2018-05-17T04:02:43.245Z,12.07
2018-05-17T04:05:02.613Z,12.07
2018-05-17T04:06:02.711Z,12.13
2018-05-17T04:07:05.742Z,12.13
2018-05-17T04:08:30.200Z,12.15
2018-05-17T04:09:09.957Z,12.27
2018-05-17T04:10:05.508Z,12.18
2018-05-17T04:27:36.522Z,12.24
2018-05-17T04:28:35.010Z,12.24
2018-05-17T04:29:35.751Z,12.28
2018-05-17T04:30:37.294Z,12.37
2018-05-17T04:31:35.722Z,12.37
2018-05-17T04:32:37.982Z,12.42
2018-05-17T04:33:36.129Z,12.47
2018-05-17T04:36:09.148Z,12.39
2018-05-17T04:37:10.639Z,12.36
2018-05-17T04:38:09.572Z,12.46
2018-05-17T04:39:10.236Z,12.47
2018-05-17T04:40:09.734Z,12.36
2018-05-17T04:41:11.162Z,12.45
2018-05-17T04:42:10.156Z,12.45
2018-05-17T04:43:11.647Z,12.42
2018-05-17T04:44:11.126Z,12.39
2018-05-17T04:45:10.687Z,12.40
2018-05-17T04:46:26.319Z,12.36
2018-05-17T04:47:13.526Z,12.31
2018-05-17T04:48:08.971Z,12.35
2018-05-17T04:49:14.571Z,12.27
2018-05-17T04:50:09.276Z,12.31
2018-05-17T04:51:09.028Z,12.28
2018-05-17T04:52:10.037Z,12.28
2018-05-17T04:53:16.431Z,12.18
2018-05-17T04:54:10.828Z,12.25
2018-05-17T04:55:11.019Z,12.10
2018-05-17T04:56:09.893Z,12.22
2018-05-17T04:57:10.064Z,12.10
2018-05-17T04:58:11.052Z,12.06
2018-05-17T04:59:10.475Z,12.09
2018-05-17T05:00:10.926Z,12.09
2018-05-17T05:01:10.841Z,12.21
2018-05-17T05:02:11.363Z,12.10
2018-05-17T05:03:11.794Z,12.03
2018-05-17T05:04:12.258Z,12.07
2018-05-17T05:05:11.655Z,12.07
2018-05-17T05:06:14.023Z,12.03
2018-05-17T05:07:12.655Z,12.06
2018-05-17T05:08:12.236Z,12.03
2018-05-17T05:09:12.236Z,12.09
2018-05-17T05:10:12.466Z,12.12
2018-05-17T05:11:14.062Z,12.21
2018-05-17T05:14:12.152Z,12.36
2018-05-17T05:15:08.896Z,12.35
2018-05-17T05:16:10.378Z,12.35
2018-05-17T05:17:11.386Z,12.32
2018-05-17T05:19:10.760Z,12.27
2018-05-17T05:20:10.260Z,12.29
2018-05-17T05:21:11.230Z,12.24
2018-05-17T05:22:08.239Z,12.22
2018-05-17T05:23:09.063Z,12.28
2018-05-17T05:24:08.655Z,12.27
2018-05-17T05:25:08.558Z,12.29
2018-05-17T05:26:09.167Z,12.24
2018-05-17T05:27:10.213Z,12.25
2018-05-17T05:28:09.221Z,12.32
2018-05-17T05:29:10.433Z,12.29
2018-05-17T05:30:09.833Z,12.25
2018-05-17T05:31:09.576Z,12.28
2018-05-17T05:32:09.787Z,12.25
2018-05-17T05:33:10.486Z,12.24
2018-05-17T05:34:09.991Z,12.35
2018-05-17T05:35:11.213Z,12.29
2018-05-17T05:36:12.987Z,12.32
2018-05-17T05:37:10.710Z,12.31
2018-05-17T05:38:11.254Z,12.27
2018-05-17T05:39:11.004Z,12.27
2018-05-17T05:40:11.139Z,12.27
2018-05-17T05:41:11.309Z,12.32
2018-05-17T05:42:11.539Z,12.25
2018-05-17T05:43:11.876Z,12.21
2018-05-17T05:44:11.789Z,12.24
2018-05-17T05:45:11.972Z,12.12
2018-05-17T05:46:12.111Z,12.20
2018-05-17T05:47:19.144Z,12.02
2018-05-17T05:48:12.533Z,12.22
2018-05-17T05:49:12.693Z,12.15
2018-05-17T05:50:12.947Z,12.07
2018-05-17T05:51:13.015Z,12.13
2018-05-17T05:52:13.189Z,12.03
2018-05-17T05:53:13.551Z,12.13
2018-05-17T05:54:13.572Z,12.28
2018-05-17T05:55:13.588Z,12.32
2018-05-17T05:56:13.846Z,12.35
2018-05-17T05:57:15.134Z,12.31
2018-05-17T05:58:15.209Z,12.42
2018-05-17T06:00:49.711Z,12.37
2018-05-17T06:08:19.569Z,12.43
2018-05-17T06:13:08.005Z,12.72
2018-05-17T06:20:50.155Z,13.25
2018-05-17T06:22:52.589Z,13.42
2018-05-17T06:23:51.683Z,13.41
2018-05-17T06:24:50.761Z,13.46
2018-05-17T06:25:49.335Z,13.52
2018-05-17T06:26:49.366Z,13.33
2018-05-17T06:27:49.488Z,13.27
2018-05-17T06:28:49.593Z,13.19
2018-05-17T06:29:49.845Z,13.19
2018-05-17T06:30:50.107Z,13.16
2018-05-17T06:31:50.175Z,13.16
2018-05-17T06:32:50.410Z,13.15
2018-05-17T06:33:50.520Z,13.04
2018-05-17T06:34:50.748Z,13.11
2018-05-17T06:35:50.956Z,13.15
2018-05-17T06:36:51.011Z,13.01
2018-05-17T06:37:51.223Z,13.08
2018-05-17T06:38:51.383Z,13.15
2018-05-17T06:39:51.531Z,13.12
2018-05-17T06:40:51.776Z,13.00
2018-05-17T06:41:51.976Z,12.95
2018-05-17T06:42:52.044Z,13.12
2018-05-17T06:43:52.233Z,13.00
2018-05-17T06:44:52.424Z,13.05
2018-05-17T06:45:52.530Z,13.05
2018-05-17T06:46:52.658Z,13.19
2018-05-17T06:47:52.901Z,13.23
2018-05-17T06:48:53.028Z,13.31
2018-05-17T06:49:53.168Z,13.47
2018-05-17T06:50:53.375Z,13.30
2018-05-17T06:51:53.978Z,13.37
2018-05-17T06:52:54.405Z,13.31
2018-05-17T06:53:54.428Z,13.39
2018-05-17T06:54:54.250Z,13.33
2018-05-17T06:55:56.401Z,13.42
2018-05-17T06:56:54.460Z,13.52
2018-05-17T06:57:54.752Z,13.46
2018-05-17T06:58:54.857Z,13.57
2018-05-17T06:59:54.990Z,13.52
2018-05-17T07:00:55.665Z,13.59
2018-05-17T07:01:55.353Z,13.60
2018-05-17T07:02:55.740Z,13.67
2018-05-17T07:03:55.705Z,13.68
2018-05-17T07:04:55.833Z,13.70
2018-05-17T07:05:56.046Z,13.79
2018-05-17T07:06:56.419Z,13.89
2018-05-17T07:07:56.871Z,14.00
2018-05-17T07:08:56.748Z,14.17
2018-05-17T07:09:57.273Z,14.37
2018-05-17T07:10:57.271Z,14.51
2018-05-17T07:11:57.804Z,14.35
2018-05-17T07:12:57.614Z,14.33
2018-05-17T07:13:57.713Z,14.44
2018-05-17T07:14:57.875Z,14.50
2018-05-17T07:15:58.405Z,14.60
2018-05-17T07:16:59.077Z,14.44
2018-05-17T07:17:58.841Z,14.54
2018-05-17T07:18:58.607Z,14.54
2018-05-17T07:19:58.800Z,14.78
2018-05-17T07:20:59.121Z,14.78
2018-05-17T07:21:58.960Z,14.81
2018-05-17T07:22:59.473Z,14.81
2018-05-17T07:23:59.315Z,14.88
2018-05-17T07:24:59.986Z,15.09
2018-05-17T07:26:00.536Z,14.97
2018-05-17T07:27:00.089Z,14.92
2018-05-17T07:28:00.387Z,14.99
2018-05-17T07:29:00.163Z,14.99
2018-05-17T07:30:02.417Z,15.03
2018-05-17T07:31:01.080Z,15.09
2018-05-17T07:32:00.872Z,15.04
2018-05-17T07:33:00.976Z,15.14
2018-05-17T07:34:01.369Z,15.02
2018-05-17T07:35:01.717Z,15.17
2018-05-17T07:36:02.095Z,15.11
2018-05-17T07:37:02.109Z,15.18
2018-05-17T07:38:02.088Z,15.11
2018-05-17T07:39:02.740Z,15.18
2018-05-17T07:40:02.313Z,15.27
2018-05-17T07:41:02.562Z,15.17
2018-05-17T07:42:02.769Z,15.15
2018-05-17T07:43:02.846Z,15.22
2018-05-17T07:44:02.922Z,15.36
2018-05-17T07:45:03.337Z,15.35
2018-05-17T07:46:03.317Z,15.40
2018-05-17T07:47:03.452Z,15.54
2018-05-17T07:48:03.665Z,15.44
2018-05-17T07:50:04.153Z,15.33
2018-05-17T07:51:04.415Z,15.47
2018-05-17T07:52:04.925Z,15.37
2018-05-17T07:53:04.680Z,15.24
2018-05-17T07:54:04.698Z,15.24
2018-05-17T07:55:04.776Z,15.11
2018-05-17T07:56:05.309Z,15.06
2018-05-17T07:57:05.319Z,14.99
2018-05-17T07:58:05.474Z,15.03
2018-05-17T07:59:05.539Z,14.99
2018-05-17T08:00:05.785Z,15.09
2018-05-17T08:01:06.273Z,15.15
2018-05-17T08:02:06.216Z,15.29
2018-05-17T08:03:06.591Z,15.52
2018-05-17T08:04:06.712Z,15.61
2018-05-17T08:05:07.353Z,15.57
2018-05-17T08:06:06.913Z,15.73
2018-05-17T08:07:07.268Z,15.92
2018-05-17T08:08:07.473Z,16.05
2018-05-17T08:09:07.666Z,16.42
2018-05-17T08:10:07.859Z,16.51
2018-05-17T08:11:08.212Z,16.58
2018-05-17T08:12:08.914Z,16.53
2018-05-17T08:13:08.540Z,16.49
2018-05-17T08:14:08.364Z,16.41
2018-05-17T08:15:08.840Z,16.21
2018-05-17T08:16:09.117Z,16.12
2018-05-17T08:17:09.600Z,15.98
2018-05-17T08:18:09.461Z,15.91
2018-05-17T08:19:09.540Z,15.77
2018-05-17T08:20:09.970Z,15.68
2018-05-17T08:21:09.941Z,15.75
2018-05-17T08:22:10.085Z,15.67
2018-05-17T08:23:10.423Z,15.61
2018-05-17T08:24:10.419Z,15.51
2018-05-17T08:25:10.686Z,15.51
2018-05-17T08:26:10.620Z,15.49
2018-05-17T08:27:10.999Z,15.58
2018-05-17T08:28:12.166Z,15.52
2018-05-17T08:29:11.124Z,15.67
2018-05-17T08:30:11.502Z,15.68
2018-05-17T08:31:11.730Z,15.75
2018-05-17T08:32:11.892Z,16.01
2018-05-17T08:33:12.057Z,15.91
2018-05-17T08:34:12.307Z,15.90
2018-05-17T08:35:12.734Z,15.91
2018-05-17T08:36:12.757Z,16.16
2018-05-17T08:37:12.788Z,16.28
2018-05-17T08:38:13.282Z,16.20
2018-05-17T08:39:13.148Z,16.15
2018-05-17T08:40:13.309Z,16.29
2018-05-17T08:41:13.677Z,16.29
2018-05-17T08:42:13.724Z,16.28
2018-05-17T08:43:13.736Z,16.12
2018-05-17T08:44:14.134Z,15.98
2018-05-17T08:45:14.192Z,15.95
2018-05-17T08:46:14.378Z,15.94
2018-05-17T08:47:14.768Z,15.77
2018-05-17T08:48:14.932Z,15.62
2018-05-17T08:49:15.163Z,15.54
2018-05-17T08:50:15.200Z,15.43
2018-05-17T08:51:15.346Z,15.15
2018-05-17T08:52:15.504Z,15.09
2018-05-17T08:53:15.696Z,15.10
2018-05-17T08:54:15.711Z,15.10
2018-05-17T08:55:15.937Z,15.04
2018-05-17T08:56:15.965Z,15.09
2018-05-17T08:57:16.129Z,15.27
2018-05-17T08:58:16.317Z,15.25
2018-05-17T08:59:16.597Z,15.31
2018-05-17T09:00:16.664Z,15.27
2018-05-17T09:01:16.839Z,15.25
2018-05-17T09:02:17.169Z,15.22
2018-05-17T09:03:17.412Z,15.19
2018-05-17T09:04:17.594Z,15.22
2018-05-17T09:05:17.859Z,15.44
2018-05-17T09:07:17.869Z,15.57
2018-05-17T09:08:18.042Z,15.55
2018-05-17T09:09:18.328Z,15.73
2018-05-17T09:10:18.408Z,15.79
2018-05-17T09:11:18.707Z,15.97
2018-05-17T09:12:18.843Z,15.97
2018-05-17T09:13:19.006Z,16.02
2018-05-17T09:14:19.186Z,16.31
2018-05-17T09:15:19.354Z,16.61
2018-05-17T09:16:19.509Z,16.91
2018-05-17T09:17:19.963Z,17.19
2018-05-17T09:18:19.966Z,17.42
2018-05-17T09:19:20.350Z,17.54
2018-05-17T09:20:20.344Z,17.60
2018-05-17T09:21:20.315Z,17.65
2018-05-17T09:22:20.465Z,17.74
2018-05-17T09:23:22.555Z,17.79
2018-05-17T09:24:20.764Z,17.60
2018-05-17T09:25:21.060Z,17.45
2018-05-17T09:26:21.143Z,17.44
2018-05-17T09:27:21.350Z,17.48
2018-05-17T09:28:21.667Z,17.24
2018-05-17T09:29:21.871Z,17.19
2018-05-17T09:30:22.977Z,17.14
2018-05-17T09:31:22.359Z,17.19
2018-05-17T09:32:22.733Z,17.02
2018-05-17T09:33:23.278Z,17.01
2018-05-17T09:34:23.804Z,16.86
2018-05-17T09:35:23.758Z,16.93
2018-05-17T09:36:23.466Z,16.83
2018-05-17T09:37:23.416Z,16.91
2018-05-17T09:38:23.345Z,16.91
2018-05-17T09:39:23.792Z,17.02
2018-05-17T09:40:24.032Z,17.05
2018-05-17T09:43:21.735Z,17.26
2018-05-17T10:05:24.819Z,17.98
2018-05-17T10:44:46.228Z,20.52
2018-05-17T10:45:47.411Z,20.44
2018-05-17T10:46:45.698Z,20.14
2018-05-17T10:47:45.234Z,19.94
2018-05-17T10:48:45.394Z,19.88
2018-05-17T10:49:45.422Z,19.66
2018-05-17T10:50:45.667Z,19.41
2018-05-17T10:51:45.795Z,19.36
2018-05-17T10:52:45.983Z,19.37
2018-05-17T10:53:46.145Z,19.58
2018-05-17T10:54:46.257Z,20.00
2018-05-17T10:55:46.469Z,20.37
2018-05-17T10:56:46.619Z,20.39
2018-05-17T10:57:46.790Z,20.50
2018-05-17T10:58:46.975Z,20.84
2018-05-17T10:59:47.105Z,21.05
2018-05-17T11:00:47.206Z,21.03
2018-05-17T11:01:47.478Z,20.92
2018-05-17T11:02:47.642Z,21.24
2018-05-17T11:03:47.831Z,21.75
2018-05-17T11:04:48.089Z,22.04
2018-05-17T11:05:48.236Z,22.36
2018-05-17T11:06:48.421Z,22.36
2018-05-17T11:07:48.573Z,22.60
2018-05-17T11:08:48.729Z,22.29
2018-05-17T11:09:48.970Z,21.98
2018-05-17T11:10:49.007Z,21.67
2018-05-17T11:11:49.155Z,21.69
2018-05-17T11:12:49.314Z,21.85
2018-05-17T11:13:49.511Z,22.23
2018-05-17T11:14:49.653Z,22.43
2018-05-17T11:15:49.793Z,22.43
2018-05-17T11:16:50.049Z,22.85
2018-05-17T11:17:50.136Z,22.93
2018-05-17T11:18:50.382Z,22.78
2018-05-17T11:19:50.502Z,22.83
2018-05-17T11:20:50.728Z,22.80
2018-05-17T11:21:50.892Z,23.00
2018-05-17T11:22:51.069Z,22.70
2018-05-17T11:23:51.275Z,22.85
2018-05-17T11:24:51.306Z,22.91
2018-05-17T11:25:51.533Z,22.70
2018-05-17T11:26:51.739Z,22.54
2018-05-17T11:27:51.916Z,22.43
2018-05-17T11:28:52.202Z,22.53
2018-05-17T11:29:52.351Z,22.23
2018-05-17T11:30:52.568Z,22.07
2018-05-17T11:31:52.636Z,21.88
2018-05-17T11:32:52.973Z,21.60
2018-05-17T11:33:53.144Z,21.40
2018-05-17T11:34:53.208Z,21.06
2018-05-17T11:35:53.364Z,21.03
2018-05-17T11:36:53.584Z,20.97
2018-05-17T11:37:53.708Z,20.92
2018-05-17T11:38:53.888Z,20.97
2018-05-17T11:39:53.976Z,20.97
2018-05-17T11:40:54.255Z,21.07
2018-05-17T11:41:54.422Z,21.45
2018-05-17T11:42:54.709Z,21.66
2018-05-17T11:43:54.802Z,21.75
2018-05-17T11:44:54.924Z,21.89
2018-05-17T11:45:55.123Z,22.07
2018-05-17T11:46:55.292Z,22.22
2018-05-17T11:47:55.399Z,22.41
2018-05-17T11:48:55.611Z,23.00
2018-05-17T11:49:55.936Z,23.47
2018-05-17T11:50:56.078Z,23.68
2018-05-17T11:51:56.261Z,23.74
2018-05-17T11:52:57.361Z,24.14
2018-05-17T11:53:56.738Z,24.14
2018-05-17T11:54:56.740Z,24.20
2018-05-17T11:55:56.935Z,24.29
2018-05-17T11:56:57.084Z,24.36
2018-05-17T11:57:57.278Z,24.33
2018-05-17T11:58:57.478Z,24.42
2018-05-17T11:59:57.677Z,24.53
2018-05-17T12:00:57.900Z,24.55
2018-05-17T12:01:58.044Z,24.66
2018-05-17T12:02:58.174Z,24.65
2018-05-17T12:03:58.403Z,24.55
2018-05-17T12:04:58.549Z,24.80
2018-05-17T12:05:58.695Z,24.86
2018-05-17T12:06:58.885Z,25.03
2018-05-17T12:07:58.990Z,25.16
2018-05-17T12:08:59.149Z,25.01
2018-05-17T12:09:59.415Z,24.85
2018-05-17T12:10:59.609Z,24.66
2018-05-17T12:11:59.760Z,24.78
2018-05-17T12:12:59.902Z,24.89
2018-05-17T12:14:00.109Z,24.89
2018-05-17T12:15:00.223Z,25.13
2018-05-17T12:16:00.491Z,25.26
2018-05-17T12:17:00.666Z,25.75
2018-05-17T12:18:00.786Z,25.62
2018-05-17T12:19:00.899Z,25.51
2018-05-17T12:20:01.054Z,25.66
2018-05-17T12:21:01.302Z,25.70
2018-05-17T12:22:01.466Z,25.59
2018-05-17T12:23:01.717Z,25.63
2018-05-17T12:24:01.898Z,25.80
2018-05-17T12:25:02.066Z,25.95
2018-05-17T12:26:02.172Z,25.77
2018-05-17T12:27:02.477Z,26.13
2018-05-17T12:28:02.525Z,26.23
2018-05-17T12:29:02.702Z,26.25
2018-05-17T12:30:02.887Z,26.38
2018-05-17T12:31:03.153Z,26.34
2018-05-17T12:32:03.256Z,26.10
2018-05-17T12:33:03.463Z,26.28
2018-05-17T12:34:03.851Z,26.21
2018-05-17T12:35:03.785Z,26.40
2018-05-17T12:36:03.984Z,26.56
2018-05-17T12:37:04.240Z,26.63
2018-05-17T12:38:04.383Z,26.68
2018-05-17T12:39:04.497Z,26.74
2018-05-17T12:40:04.828Z,26.83
2018-05-17T12:41:04.883Z,26.75
2018-05-17T12:42:05.052Z,26.44
2018-05-17T12:43:05.234Z,26.33
2018-05-17T12:44:05.469Z,26.23
2018-05-17T12:45:05.670Z,26.15
2018-05-17T12:46:05.782Z,26.25
2018-05-17T12:47:05.949Z,25.99
2018-05-17T12:48:06.130Z,25.77
2018-05-17T12:49:06.315Z,25.58
2018-05-17T12:50:06.547Z,25.33
2018-05-17T12:51:06.912Z,25.22
2018-05-17T12:52:06.927Z,25.16
2018-05-17T12:53:07.051Z,25.21
2018-05-17T12:54:07.216Z,25.26
2018-05-17T12:55:07.352Z,24.85
2018-05-17T12:56:07.517Z,24.50
2018-05-17T12:57:07.728Z,24.06
2018-05-17T12:58:07.847Z,23.69
2018-05-17T12:59:08.087Z,23.20
2018-05-17T13:00:08.266Z,23.02
2018-05-17T13:01:08.442Z,22.80
2018-05-17T13:02:08.603Z,22.53
2018-05-17T13:03:08.693Z,22.59
2018-05-17T13:04:08.964Z,22.81
2018-05-17T13:05:09.224Z,23.21
2018-05-17T13:06:09.998Z,23.80
2018-05-17T13:07:10.122Z,24.40
2018-05-17T13:13:27.318Z,25.58
2018-05-17T13:14:05.039Z,25.46
2018-05-17T13:19:08.540Z,25.10
2018-05-17T13:32:52.498Z,25.25
2018-05-17T13:33:15.420Z,25.32
2018-05-17T13:42:53.666Z,27.17
2018-05-17T14:02:23.071Z,25.58
2018-05-17T14:05:32.915Z,25.85
2018-05-17T14:07:27.738Z,25.83
2018-05-17T14:14:27.542Z,26.92
2018-05-17T14:22:17.415Z,26.02
2018-05-17T14:28:03.694Z,25.98
2018-05-17T14:33:32.372Z,26.75
2018-05-17T14:52:58.371Z,26.48
2018-05-17T15:09:54.731Z,26.55
2018-05-17T15:11:28.772Z,26.40
2018-05-17T15:13:46.530Z,26.03
2018-05-17T15:30:54.010Z,25.69
2018-05-17T15:32:45.162Z,25.26
2018-05-17T15:47:25.369Z,24.81
2018-05-17T15:49:01.610Z,24.95
2018-05-17T15:50:09.551Z,24.84
2018-05-17T15:51:54.505Z,24.77
2018-05-17T15:52:01.399Z,24.93
2018-05-17T16:03:27.602Z,24.50
2018-05-17T16:14:26.004Z,23.54
2018-05-17T16:25:55.694Z,23.25
2018-05-17T16:44:04.427Z,20.48
2018-05-17T16:46:16.619Z,20.43
2018-05-17T16:47:45.626Z,20.40
2018-05-17T16:59:57.825Z,19.63
2018-05-17T17:05:27.296Z,19.31
2018-05-17T18:00:50.964Z,17.82
2018-05-17T18:01:50.008Z,17.95
2018-05-17T18:03:51.032Z,17.92
2018-05-17T18:04:53.236Z,17.97
2018-05-17T18:05:51.023Z,17.85
2018-05-17T18:06:48.413Z,17.70
2018-05-17T20:14:54.682Z,13.39
2018-05-17T20:15:25.953Z,13.30
2018-05-17T21:23:43.667Z,11.68
2018-05-17T21:36:00.693Z,11.47
2018-05-17T21:37:06.481Z,11.43
